createdAt,value
2023-03-12T00:02:17.916Z,98801.84
2023-03-12T00:04:44.852Z,98805.28
2023-03-12T00:07:11.648Z,98808.69
2023-03-12T00:09:39.485Z,98815.56
2023-03-12T00:12:06.578Z,98819.00
2023-03-12T00:14:33.441Z,98818.00
2023-03-12T00:17:00.145Z,98823.25
2023-03-12T00:19:26.813Z,98825.03
2023-03-12T00:21:53.511Z,98821.56
2023-03-12T00:24:20.079Z,98814.69
2023-03-12T00:26:46.830Z,98815.53
2023-03-12T00:29:13.501Z,98812.88
2023-03-12T00:31:40.225Z,98806.94
2023-03-12T00:34:07.031Z,98812.03
2023-03-12T00:36:34.085Z,98813.03
2023-03-12T00:39:01.949Z,98812.06
2023-03-12T00:41:29.358Z,98811.31
2023-03-12T00:43:56.141Z,98811.34
2023-03-12T00:46:23.485Z,98815.66
2023-03-12T00:48:50.441Z,98815.66
2023-03-12T00:51:17.264Z,98818.25
2023-03-12T00:53:44.107Z,98822.53
2023-03-12T00:56:10.782Z,98810.50
2023-03-12T00:58:37.591Z,98807.06
2023-03-12T01:01:04.900Z,98815.69
2023-03-12T01:03:31.510Z,98803.63
2023-03-12T01:05:58.090Z,98796.72
2023-03-12T01:08:25.102Z,98796.75
2023-03-12T01:10:51.992Z,98797.56
2023-03-12T01:13:18.575Z,98796.72
2023-03-12T01:15:45.165Z,98795.88
2023-03-12T01:18:11.855Z,98797.53
2023-03-12T01:20:38.722Z,98793.22
2023-03-12T01:23:05.268Z,98791.50
2023-03-12T01:25:33.982Z,98795.81
2023-03-12T01:28:00.775Z,98789.78
2023-03-12T01:30:27.559Z,98791.50
2023-03-12T01:32:54.597Z,98800.97
2023-03-12T01:35:21.362Z,98794.91
2023-03-12T01:37:48.009Z,98795.75
2023-03-12T01:40:20.799Z,98798.34
2023-03-12T01:42:56.252Z,98794.03
2023-03-12T01:45:57.011Z,98788.00
2023-03-12T01:48:23.807Z,98794.97
2023-03-12T01:50:50.604Z,98792.34
2023-03-12T01:53:18.521Z,98790.63
2023-03-12T01:55:45.102Z,98781.16
2023-03-12T01:58:11.866Z,98779.44
2023-03-12T02:00:38.520Z,98775.16
2023-03-12T02:03:08.721Z,98781.13
2023-03-12T02:05:54.719Z,98770.88
2023-03-12T02:08:23.953Z,98773.47
2023-03-12T02:10:51.120Z,98782.91
2023-03-12T02:13:18.506Z,98779.44
2023-03-12T02:15:47.637Z,98774.25
2023-03-12T02:18:18.029Z,98771.66
2023-03-12T02:20:56.411Z,98775.13
2023-03-12T02:23:42.855Z,98764.84
2023-03-12T02:26:10.639Z,98764.81
2023-03-12T02:28:43.830Z,98765.66
2023-03-12T02:31:13.792Z,98765.66
2023-03-12T02:33:40.658Z,98759.59
2023-03-12T02:36:07.798Z,98765.66
2023-03-12T02:38:40.489Z,98763.91
2023-03-12T02:41:13.407Z,98763.03
2023-03-12T02:43:41.371Z,98769.03
2023-03-12T02:46:09.190Z,98767.34
2023-03-12T02:48:35.878Z,98771.59
2023-03-12T02:51:03.366Z,98764.78
2023-03-12T02:53:30.387Z,98768.22
2023-03-12T02:55:57.205Z,98772.47
2023-03-12T02:58:24.165Z,98773.28
2023-03-12T03:00:50.905Z,98774.22
2023-03-12T03:03:17.705Z,98772.47
2023-03-12T03:05:44.433Z,98769.06
2023-03-12T03:08:11.098Z,98775.03
2023-03-12T03:10:37.962Z,98769.91
2023-03-12T03:13:04.706Z,98776.09
2023-03-12T03:15:31.774Z,98779.44
2023-03-12T03:17:58.521Z,98769.06
2023-03-12T03:20:26.719Z,98773.50
2023-03-12T03:22:53.224Z,98769.16
2023-03-12T03:25:23.112Z,98770.75
2023-03-12T03:27:50.301Z,98763.84
2023-03-12T03:30:17.427Z,98763.84
2023-03-12T03:32:46.460Z,98748.34
2023-03-12T03:35:14.731Z,98756.94
2023-03-12T03:37:41.332Z,98751.75
2023-03-12T03:40:11.758Z,98756.06
2023-03-12T03:42:40.400Z,98742.25
2023-03-12T03:45:09.416Z,98741.47
2023-03-12T03:47:37.559Z,98739.72
2023-03-12T03:50:06.087Z,98740.59
2023-03-12T03:52:33.081Z,98731.09
2023-03-12T03:55:00.146Z,98728.50
2023-03-12T03:57:27.535Z,98727.59
2023-03-12T03:59:54.698Z,98732.75
2023-03-12T04:02:22.027Z,98730.13
2023-03-12T04:04:48.751Z,98727.53
2023-03-12T04:07:16.360Z,98723.19
2023-03-12T04:09:43.680Z,98730.88
2023-03-12T04:12:10.380Z,98726.63
2023-03-12T04:14:41.222Z,98733.53
2023-03-12T04:17:09.826Z,98732.75
2023-03-12T04:19:36.999Z,98738.59
2023-03-12T04:22:05.174Z,98739.78
2023-03-12T04:24:31.863Z,98732.69
2023-03-12T04:26:59.201Z,98734.34
2023-03-12T04:29:26.671Z,98729.19
2023-03-12T04:31:54.015Z,98734.34
2023-03-12T04:34:20.894Z,98734.31
2023-03-12T04:36:49.898Z,98733.44
2023-03-12T04:39:19.161Z,98745.59
2023-03-12T04:41:47.335Z,98736.13
2023-03-12T04:44:16.075Z,98736.84
2023-03-12T04:46:43.435Z,98726.63
2023-03-12T04:49:13.640Z,98734.72
2023-03-12T04:51:42.307Z,98738.00
2023-03-12T04:54:09.288Z,98742.28
2023-03-12T04:56:37.393Z,98740.44
2023-03-12T04:59:05.488Z,98740.44
2023-03-12T05:01:34.552Z,98750.66
2023-03-12T05:04:06.398Z,98747.56
2023-03-12T05:06:34.192Z,98739.53
2023-03-12T05:09:01.654Z,98738.09
2023-03-12T05:11:28.515Z,98729.50
2023-03-12T05:13:55.334Z,98732.00
2023-03-12T05:16:23.682Z,98724.91
2023-03-12T05:18:50.565Z,98733.44
2023-03-12T05:21:20.383Z,98719.63
2023-03-12T05:23:49.845Z,98721.28
2023-03-12T05:26:23.261Z,98714.31
2023-03-12T05:28:52.260Z,98713.50
2023-03-12T05:31:21.279Z,98704.84
2023-03-12T05:33:51.654Z,98701.69
2023-03-12T05:36:20.464Z,98699.72
2023-03-12T05:38:47.392Z,98690.19
2023-03-12T05:41:34.202Z,98684.19
2023-03-12T05:44:07.042Z,98683.41
2023-03-12T05:46:35.154Z,98683.53
2023-03-12T05:49:01.764Z,98685.16
2023-03-12T05:51:28.572Z,98691.41
2023-03-12T05:53:55.513Z,98694.13
2023-03-12T05:56:22.151Z,98686.13
2023-03-12T05:58:50.067Z,98691.03
2023-03-12T06:01:28.053Z,98692.59
2023-03-12T06:03:57.369Z,98694.75
2023-03-12T06:06:25.572Z,98695.06
2023-03-12T06:08:53.267Z,98699.00
2023-03-12T06:11:19.928Z,98692.06
2023-03-12T06:13:47.995Z,98690.09
2023-03-12T06:16:24.117Z,98691.13
2023-03-12T06:18:59.269Z,98693.28
2023-03-12T06:21:29.138Z,98696.00
2023-03-12T06:23:56.947Z,98687.19
2023-03-12T06:26:31.234Z,98691.97
2023-03-12T06:28:57.978Z,98694.19
2023-03-12T06:31:25.609Z,98689.00
2023-03-12T06:33:53.723Z,98691.63
2023-03-12T06:36:20.450Z,98687.75
2023-03-12T06:38:47.356Z,98685.06
2023-03-12T06:41:16.837Z,98688.09
2023-03-12T06:43:44.797Z,98686.38
2023-03-12T06:46:18.502Z,98691.25
2023-03-12T06:48:46.594Z,98680.22
2023-03-12T06:51:15.014Z,98683.25
2023-03-12T06:53:42.639Z,98679.47
2023-03-12T06:56:10.455Z,98673.75
2023-03-12T06:58:37.536Z,98665.94
2023-03-12T07:01:04.450Z,98669.44
2023-03-12T07:03:31.240Z,98668.06
2023-03-12T07:05:58.669Z,98669.53
2023-03-12T07:08:26.567Z,98672.63
2023-03-12T07:10:53.077Z,98681.97
2023-03-12T07:13:19.678Z,98685.59
2023-03-12T07:15:46.545Z,98687.16
2023-03-12T07:18:13.374Z,98676.16
2023-03-12T07:20:42.535Z,98685.22
2023-03-12T07:23:09.620Z,98683.25
2023-03-12T07:25:38.207Z,98692.78
2023-03-12T07:28:05.217Z,98683.34
2023-03-12T07:30:35.274Z,98681.75
2023-03-12T07:33:07.701Z,98679.28
2023-03-12T07:35:35.513Z,98674.13
2023-03-12T07:38:02.572Z,98673.41
2023-03-12T07:40:29.521Z,98669.59
2023-03-12T07:42:56.894Z,98662.09
2023-03-12T07:45:24.018Z,98662.75
2023-03-12T07:47:54.414Z,98669.97
2023-03-12T07:50:31.966Z,98671.19
2023-03-12T07:53:01.861Z,98666.41
2023-03-12T07:55:28.723Z,98669.00
2023-03-12T07:57:58.507Z,98670.88
2023-03-12T08:00:27.037Z,98657.59
2023-03-12T08:02:54.938Z,98660.13
2023-03-12T08:05:24.758Z,98660.13
2023-03-12T08:07:52.595Z,98650.97
2023-03-12T08:10:20.075Z,98659.75
2023-03-12T08:12:47.915Z,98648.44
2023-03-12T08:15:15.777Z,98656.56
2023-03-12T08:17:42.678Z,98658.06
2023-03-12T08:20:10.831Z,98647.69
2023-03-12T08:22:38.724Z,98635.72
2023-03-12T08:25:06.384Z,98648.59
2023-03-12T08:27:33.957Z,98651.13
2023-03-12T08:30:00.532Z,98643.13
2023-03-12T08:32:27.663Z,98645.13
2023-03-12T08:34:54.286Z,98655.91
2023-03-12T08:37:20.992Z,98652.69
2023-03-12T08:39:47.600Z,98650.28
2023-03-12T08:42:14.140Z,98656.97
2023-03-12T08:44:40.806Z,98661.47
2023-03-12T08:47:07.452Z,98654.41
2023-03-12T08:49:34.381Z,98649.66
2023-03-12T08:52:01.023Z,98653.41
2023-03-12T08:54:27.791Z,98650.88
2023-03-12T08:56:54.383Z,98647.47
2023-03-12T08:59:22.302Z,98651.97
2023-03-12T09:01:49.403Z,98656.78
2023-03-12T09:04:16.502Z,98644.31
2023-03-12T09:06:43.658Z,98642.47
2023-03-12T09:09:10.296Z,98634.44
2023-03-12T09:11:39.683Z,98630.13
2023-03-12T09:16:53.688Z,98634.47
2023-03-12T09:19:21.023Z,98621.16
2023-03-12T09:21:47.519Z,98616.13
2023-03-12T09:24:14.141Z,98618.34
2023-03-12T09:26:40.674Z,98625.41
2023-03-12T09:29:07.350Z,98612.94
2023-03-12T09:31:34.642Z,98628.63
2023-03-12T09:34:01.141Z,98619.41
2023-03-12T09:36:28.085Z,98629.00
2023-03-12T09:38:55.088Z,98629.72
2023-03-12T09:41:25.829Z,98627.44
2023-03-12T09:44:18.407Z,98627.84
2023-03-12T09:46:51.264Z,98625.84
2023-03-12T09:49:36.110Z,98635.78
2023-03-12T09:52:18.100Z,98632.97
2023-03-12T09:54:52.335Z,98639.50
2023-03-12T09:57:24.736Z,98644.16
2023-03-12T09:59:52.517Z,98647.91
2023-03-12T10:02:37.326Z,98656.75
2023-03-12T10:05:11.744Z,98643.91
2023-03-12T10:07:47.391Z,98637.31
2023-03-12T10:10:28.650Z,98637.00
2023-03-12T10:13:29.470Z,98632.78
2023-03-12T10:16:05.035Z,98637.75
2023-03-12T10:18:48.409Z,98631.41
2023-03-12T10:21:34.200Z,98630.41
2023-03-12T10:24:25.534Z,98628.22
2023-03-12T10:26:55.730Z,98625.28
2023-03-12T10:29:32.605Z,98634.78
2023-03-12T10:32:45.857Z,98632.94
2023-03-12T10:35:22.455Z,98636.16
2023-03-12T10:37:53.730Z,98631.31
2023-03-12T10:40:24.451Z,98632.44
2023-03-12T10:42:51.456Z,98630.03
2023-03-12T10:45:23.132Z,98632.19
2023-03-12T10:47:57.426Z,98628.03
2023-03-12T10:50:26.737Z,98626.16
2023-03-12T10:53:13.939Z,98627.06
2023-03-12T10:55:41.009Z,98632.19
2023-03-12T10:58:22.962Z,98631.91
2023-03-12T11:00:56.974Z,98634.03
2023-03-12T11:03:23.526Z,98636.84
2023-03-12T11:05:53.571Z,98637.31
2023-03-12T11:08:27.058Z,98628.75
2023-03-12T11:10:55.607Z,98633.34
2023-03-12T11:13:32.958Z,98630.75
2023-03-12T11:16:02.695Z,98626.38
2023-03-12T11:18:35.275Z,98620.00
2023-03-12T11:21:10.481Z,98615.03
2023-03-12T11:23:40.825Z,98616.53
2023-03-12T11:26:16.343Z,98609.06
2023-03-12T11:28:47.859Z,98611.63
2023-03-12T11:31:26.247Z,98604.47
2023-03-12T11:34:07.274Z,98613.84
2023-03-12T11:36:56.509Z,98606.47
2023-03-12T11:39:41.987Z,98612.31
2023-03-12T11:42:23.833Z,98610.75
2023-03-12T11:45:14.977Z,98617.47
2023-03-12T11:47:45.564Z,98606.94
2023-03-12T11:50:20.554Z,98608.53
2023-03-12T11:53:11.752Z,98602.81
2023-03-12T11:55:43.724Z,98605.81
2023-03-12T11:58:49.523Z,98597.88
2023-03-12T12:01:30.290Z,98601.41
2023-03-12T12:04:12.647Z,98601.09
2023-03-12T12:07:01.237Z,98598.63
2023-03-12T12:09:41.046Z,98590.91
2023-03-12T12:12:32.720Z,98595.16
2023-03-12T12:15:32.736Z,98589.56
2023-03-12T12:18:10.985Z,98582.81
2023-03-12T12:20:48.509Z,98594.16
2023-03-12T12:23:28.307Z,98582.13
2023-03-12T12:26:05.570Z,98587.16
2023-03-12T12:28:54.310Z,98568.09
2023-03-12T12:31:46.408Z,98579.69
2023-03-12T12:34:25.084Z,98569.16
2023-03-12T12:37:17.741Z,98570.19
2023-03-12T12:40:15.449Z,98553.66
2023-03-12T12:42:54.668Z,98566.81
2023-03-12T12:45:23.391Z,98563.03
2023-03-12T12:47:57.104Z,98563.25
2023-03-12T12:50:29.202Z,98566.81
2023-03-12T12:53:06.119Z,98553.44
2023-03-12T12:55:41.084Z,98550.31
2023-03-12T12:58:38.406Z,98552.41
2023-03-12T13:01:05.451Z,98549.84
2023-03-12T13:03:33.323Z,98555.25
2023-03-12T13:06:03.320Z,98553.66
2023-03-12T13:08:45.009Z,98574.47
2023-03-12T13:11:19.319Z,98557.41
2023-03-12T13:14:02.392Z,98554.63
2023-03-12T13:16:33.210Z,98562.25
2023-03-12T13:19:05.858Z,98567.72
2023-03-12T13:21:50.766Z,98556.94
2023-03-12T13:24:42.442Z,98549.53
2023-03-12T13:27:20.518Z,98550.31
2023-03-12T13:29:47.450Z,98547.25
2023-03-12T13:32:37.999Z,98551.03
2023-03-12T13:35:27.573Z,98557.25
2023-03-12T13:37:54.154Z,98564.53
2023-03-12T13:40:29.862Z,98540.16
2023-03-12T13:43:11.744Z,98557.03
2023-03-12T13:45:47.768Z,98558.28
2023-03-12T13:48:19.609Z,98548.66
2023-03-12T13:50:59.156Z,98547.00
2023-03-12T13:53:32.419Z,98535.19
2023-03-12T13:56:07.341Z,98551.81
2023-03-12T13:58:47.065Z,98556.75
2023-03-12T14:01:18.628Z,98558.97
2023-03-12T14:03:53.205Z,98571.81
2023-03-12T14:06:23.120Z,98566.97
2023-03-12T14:08:55.760Z,98567.72
2023-03-12T14:11:53.336Z,98555.69
2023-03-12T14:14:51.145Z,98559.84
2023-03-12T14:17:24.341Z,98557.69
2023-03-12T14:20:10.685Z,98547.00
2023-03-12T14:22:39.567Z,98546.41
2023-03-12T14:25:14.586Z,98545.25
2023-03-12T14:27:44.884Z,98534.44
2023-03-12T14:30:20.114Z,98526.38
2023-03-12T14:32:50.855Z,98525.78
2023-03-12T14:35:22.590Z,98526.22
2023-03-12T14:38:34.705Z,98524.03
2023-03-12T14:41:13.259Z,98522.84
2023-03-12T14:43:43.212Z,98516.41
2023-03-12T14:46:21.957Z,98517.63
2023-03-12T14:48:52.106Z,98510.25
2023-03-12T14:51:37.032Z,98508.59
2023-03-12T14:54:03.846Z,98507.06
2023-03-12T14:56:34.900Z,98497.31
2023-03-12T14:59:20.762Z,98501.59
2023-03-12T15:01:48.112Z,98509.59
2023-03-12T15:04:18.526Z,98494.72
2023-03-12T15:06:52.351Z,98498.25
2023-03-12T15:09:24.790Z,98509.16
2023-03-12T15:11:55.709Z,98520.66
2023-03-12T15:14:24.386Z,98507.16
2023-03-12T15:16:51.489Z,98506.28
2023-03-12T15:19:26.148Z,98516.84
2023-03-12T15:21:52.962Z,98509.53
2023-03-12T15:24:19.901Z,98517.44
2023-03-12T15:26:46.581Z,98513.19
2023-03-12T15:29:27.407Z,98518.22
2023-03-12T15:31:59.204Z,98515.81
2023-03-12T15:34:38.540Z,98522.34
2023-03-12T15:37:29.626Z,98511.94
2023-03-12T15:39:56.875Z,98503.03
2023-03-12T15:42:26.472Z,98490.03
2023-03-12T15:45:02.903Z,98491.97
2023-03-12T15:47:39.629Z,98494.47
2023-03-12T15:50:20.044Z,98479.06
2023-03-12T15:52:59.944Z,98476.47
2023-03-12T15:55:31.195Z,98484.06
2023-03-12T15:57:59.095Z,98478.41
2023-03-12T16:00:31.012Z,98479.06
2023-03-12T16:03:05.970Z,98478.78
2023-03-12T16:05:35.912Z,98477.16
2023-03-12T16:08:22.721Z,98476.22
2023-03-12T16:10:50.307Z,98487.00
2023-03-12T16:13:20.192Z,98483.09
2023-03-12T16:15:48.097Z,98490.41
2023-03-12T16:18:20.536Z,98481.81
2023-03-12T16:20:48.276Z,98484.91
2023-03-12T16:23:15.808Z,98480.97
2023-03-12T16:25:44.631Z,98484.44
2023-03-12T16:28:15.309Z,98479.66
2023-03-12T16:30:41.916Z,98479.66
2023-03-12T16:33:12.711Z,98483.50
2023-03-12T16:35:45.357Z,98491.44
2023-03-12T16:38:12.124Z,98487.59
2023-03-12T16:40:43.918Z,98494.00
2023-03-12T16:43:30.489Z,98489.25
2023-03-12T16:45:57.948Z,98497.66
2023-03-12T16:48:25.572Z,98495.31
2023-03-12T16:50:54.764Z,98498.00
2023-03-12T16:53:22.163Z,98492.03
2023-03-12T16:55:58.017Z,98500.84
2023-03-12T16:58:26.618Z,98492.50
2023-03-12T17:00:54.580Z,98491.72
2023-03-12T17:03:26.380Z,98489.41
2023-03-12T17:05:53.212Z,98487.44
2023-03-12T17:08:19.777Z,98489.63
2023-03-12T17:10:46.653Z,98487.00
2023-03-12T17:13:18.962Z,98490.66
2023-03-12T17:15:46.310Z,98489.81
2023-03-12T17:18:16.746Z,98502.16
2023-03-12T17:20:51.988Z,98505.00
2023-03-12T17:23:19.570Z,98504.09
2023-03-12T17:25:46.371Z,98500.22
2023-03-12T17:28:15.496Z,98504.94
2023-03-12T17:30:43.018Z,98514.59
2023-03-12T17:33:12.566Z,98519.66
2023-03-12T17:35:40.082Z,98521.69
2023-03-12T17:38:07.419Z,98529.47
2023-03-12T17:40:35.590Z,98538.13
2023-03-12T17:43:02.386Z,98543.69
2023-03-12T17:45:28.894Z,98548.13
2023-03-12T17:47:55.431Z,98555.84
2023-03-12T17:50:22.148Z,98551.75
2023-03-12T17:52:48.820Z,98555.84
2023-03-12T17:55:15.460Z,98561.81
2023-03-12T17:57:44.517Z,98555.81
2023-03-12T18:00:13.014Z,98559.06
2023-03-12T18:02:41.234Z,98555.28
2023-03-12T18:05:10.025Z,98550.66
2023-03-12T18:07:37.002Z,98548.53
2023-03-12T18:10:06.472Z,98565.38
2023-03-12T18:12:33.717Z,98564.25
2023-03-12T18:15:21.786Z,98556.34
2023-03-12T18:17:56.824Z,98560.16
2023-03-12T18:20:36.201Z,98560.75
2023-03-12T18:23:05.738Z,98559.06
2023-03-12T18:25:32.314Z,98561.91
2023-03-12T18:27:58.870Z,98558.25
2023-03-12T18:30:25.561Z,98555.59
2023-03-12T18:32:52.120Z,98557.28
2023-03-12T18:35:18.853Z,98559.41
2023-03-12T18:37:46.061Z,98568.38
2023-03-12T18:40:16.351Z,98568.78
2023-03-12T18:42:44.450Z,98567.56
2023-03-12T18:45:12.172Z,98561.00
2023-03-12T18:47:44.609Z,98561.44
2023-03-12T18:50:12.450Z,98551.47
2023-03-12T18:52:40.107Z,98554.75
2023-03-12T18:55:06.844Z,98549.94
2023-03-12T18:57:33.671Z,98551.25
2023-03-12T19:00:00.317Z,98559.38
2023-03-12T19:02:26.932Z,98560.28
2023-03-12T19:04:55.943Z,98555.31
2023-03-12T19:07:22.839Z,98552.22
2023-03-12T19:09:49.532Z,98557.34
2023-03-12T19:12:16.340Z,98561.50
2023-03-12T19:14:43.448Z,98559.88
2023-03-12T19:17:10.067Z,98552.91
2023-03-12T19:19:36.597Z,98562.66
2023-03-12T19:22:04.576Z,98568.13
2023-03-12T19:24:31.669Z,98573.50
2023-03-12T19:26:58.318Z,98574.84
2023-03-12T19:29:24.970Z,98570.06
2023-03-12T19:31:51.790Z,98575.47
2023-03-12T19:34:18.478Z,98586.03
2023-03-12T19:36:45.106Z,98575.19
2023-03-12T19:39:21.201Z,98581.34
2023-03-12T19:41:48.345Z,98578.19
2023-03-12T19:44:14.909Z,98582.00
2023-03-12T19:46:43.157Z,98573.97
2023-03-12T19:49:10.130Z,98573.56
2023-03-12T19:51:36.872Z,98573.00
2023-03-12T19:54:03.590Z,98584.53
2023-03-12T19:56:30.178Z,98580.59
2023-03-12T19:58:56.708Z,98572.66
2023-03-12T20:01:23.580Z,98583.41
2023-03-12T20:03:50.198Z,98586.09
2023-03-12T20:06:17.024Z,98582.63
2023-03-12T20:08:45.529Z,98574.75
2023-03-12T20:11:12.176Z,98585.53
2023-03-12T20:13:38.878Z,98589.09
2023-03-12T20:16:07.607Z,98587.97
2023-03-12T20:18:34.549Z,98592.91
2023-03-12T20:21:01.115Z,98589.63
2023-03-12T20:23:27.674Z,98584.69
2023-03-12T20:25:54.245Z,98579.94
2023-03-12T20:28:20.726Z,98578.22
2023-03-12T20:30:48.475Z,98571.88
2023-03-12T20:33:15.172Z,98558.19
2023-03-12T20:35:41.850Z,98562.59
2023-03-12T20:38:08.412Z,98550.09
2023-03-12T20:40:35.527Z,98551.75
2023-03-12T20:43:05.276Z,98557.06
2023-03-12T20:45:33.367Z,98556.19
2023-03-12T20:48:00.711Z,98554.38
2023-03-12T20:50:28.016Z,98555.50
2023-03-12T20:52:54.675Z,98560.59
2023-03-12T20:55:21.284Z,98552.00
2023-03-12T20:57:47.912Z,98553.09
2023-03-12T21:00:14.743Z,98552.63
2023-03-12T21:02:41.401Z,98550.19
2023-03-12T21:05:11.354Z,98559.63
2023-03-12T21:07:37.963Z,98544.06
2023-03-12T21:10:05.138Z,98547.84
2023-03-12T21:12:32.024Z,98545.50
2023-03-12T21:15:06.291Z,98545.22
2023-03-12T21:17:34.660Z,98541.28
2023-03-12T21:20:09.717Z,98543.91
2023-03-12T21:22:37.345Z,98537.56
2023-03-12T21:25:04.581Z,98539.47
2023-03-12T21:27:38.420Z,98543.63
2023-03-12T21:30:15.063Z,98544.00
2023-03-12T21:32:41.860Z,98547.81
2023-03-12T21:35:08.754Z,98548.63
2023-03-12T21:37:35.325Z,98541.75
2023-03-12T21:40:01.855Z,98547.56
2023-03-12T21:42:28.860Z,98546.56
2023-03-12T21:44:55.515Z,98551.47
2023-03-12T21:47:22.632Z,98547.69
2023-03-12T21:49:49.255Z,98552.38
2023-03-12T21:52:15.915Z,98549.59
2023-03-12T21:54:42.417Z,98546.94
2023-03-12T21:57:09.119Z,98542.25
2023-03-12T21:59:35.656Z,98544.56
2023-03-12T22:02:02.311Z,98537.84
2023-03-12T22:04:28.904Z,98537.22
2023-03-12T22:06:56.576Z,98531.41
2023-03-12T22:09:23.380Z,98532.53
2023-03-12T22:11:49.934Z,98529.91
2023-03-12T22:14:16.529Z,98520.31
2023-03-12T22:16:43.109Z,98521.47
2023-03-12T22:19:09.651Z,98510.00
2023-03-12T22:21:36.452Z,98512.59
2023-03-12T22:24:03.137Z,98496.09
2023-03-12T22:26:30.137Z,98508.31
2023-03-12T22:28:57.908Z,98508.56
2023-03-12T22:31:27.190Z,98500.56
2023-03-12T22:33:53.958Z,98490.28
2023-03-12T22:36:21.126Z,98492.31
2023-03-12T22:38:48.659Z,98488.31
2023-03-12T22:41:16.551Z,98484.78
2023-03-12T22:43:43.749Z,98482.75
2023-03-12T22:46:10.586Z,98485.38
2023-03-12T22:48:37.244Z,98473.53
2023-03-12T22:51:04.990Z,98482.75
2023-03-12T22:53:32.493Z,98477.72
2023-03-12T22:56:00.591Z,98474.28
2023-03-12T22:58:27.439Z,98487.38
2023-03-12T23:01:01.623Z,98472.91
2023-03-12T23:03:30.354Z,98474.19
2023-03-12T23:05:57.285Z,98469.41
2023-03-12T23:08:24.144Z,98460.28
2023-03-12T23:10:59.581Z,98455.38
2023-03-12T23:13:27.617Z,98461.06
2023-03-12T23:15:54.306Z,98452.91
2023-03-12T23:18:21.446Z,98451.63
2023-03-12T23:20:48.171Z,98446.22
2023-03-12T23:23:17.568Z,98443.41
2023-03-12T23:25:52.391Z,98444.34
2023-03-12T23:28:18.937Z,98443.13
2023-03-12T23:31:06.228Z,98443.59
2023-03-12T23:33:34.016Z,98445.16
2023-03-12T23:36:26.420Z,98443.53
2023-03-12T23:38:52.996Z,98445.34
2023-03-12T23:41:22.553Z,98444.97
2023-03-12T23:43:50.282Z,98441.66
2023-03-12T23:46:17.546Z,98438.75
2023-03-12T23:48:45.801Z,98428.56
2023-03-12T23:51:16.891Z,98415.97
2023-03-12T23:53:45.999Z,98409.00
2023-03-12T23:56:16.124Z,98417.06
2023-03-12T23:58:43.854Z,98418.16
